sensor_id;sensor_type;location;lat;lon;timestamp;temperature;humidity
30336;DHT22;17142;47.990;7.846;2022-12-10T08:38:59;0.70;99.90
30336;DHT22;17142;47.990;7.846;2022-12-10T08:41:25;0.70;99.90
30336;DHT22;17142;47.990;7.846;2022-12-10T08:43:55;0.70;99.90
30336;DHT22;17142;47.990;7.846;2022-12-10T08:46:21;0.70;99.90
30336;DHT22;17142;47.990;7.846;2022-12-10T08:48:48;0.80;99.90
30336;DHT22;17142;47.990;7.846;2022-12-10T08:51:17;0.80;99.90
30336;DHT22;17142;47.990;7.846;2022-12-10T08:53:43;0.80;99.90
30336;DHT22;17142;47.990;7.846;2022-12-10T08:56:09;0.80;99.90
30336;DHT22;17142;47.990;7.846;2022-12-10T08:58:37;0.80;99.90
30336;DHT22;17142;47.990;7.846;2022-12-10T09:01:07;0.90;99.90
30336;DHT22;17142;47.990;7.846;2022-12-10T09:03:36;0.90;99.90
30336;DHT22;17142;47.990;7.846;2022-12-10T09:06:08;0.90;99.90
30336;DHT22;17142;47.990;7.846;2022-12-10T09:08:34;0.90;99.90
30336;DHT22;17142;47.990;7.846;2022-12-10T09:11:12;0.90;99.90
30336;DHT22;17142;47.990;7.846;2022-12-10T09:13:40;0.90;99.90
30336;DHT22;17142;47.990;7.846;2022-12-10T09:16:06;0.90;99.90
30336;DHT22;17142;47.990;7.846;2022-12-10T09:18:34;0.90;99.90
30336;DHT22;17142;47.990;7.846;2022-12-10T09:21:04;0.90;99.90
30336;DHT22;17142;47.990;7.846;2022-12-10T09:23:32;0.90;99.90
30336;DHT22;17142;47.990;7.846;2022-12-10T09:25:58;0.90;99.90
30336;DHT22;17142;47.990;7.846;2022-12-10T09:28:23;0.90;99.90
30336;DHT22;17142;47.990;7.846;2022-12-10T09:30:56;0.90;99.90
30336;DHT22;17142;47.990;7.846;2022-12-10T09:33:22;0.90;99.90
30336;DHT22;17142;47.990;7.846;2022-12-10T09:35:47;0.90;99.90
30336;DHT22;17142;47.990;7.846;2022-12-10T09:38:13;0.90;99.90
30336;DHT22;17142;47.990;7.846;2022-12-10T09:51:24;0.90;99.90
30336;DHT22;17142;47.990;7.846;2022-12-10T09:53:55;0.90;99.90
30336;DHT22;17142;47.990;7.846;2022-12-10T09:56:33;0.80;99.90
30336;DHT22;17142;47.990;7.846;2022-12-10T09:59:10;0.80;99.90
30336;DHT22;17142;47.990;7.846;2022-12-10T10:01:41;0.80;99.90
30336;DHT22;17142;47.990;7.846;2022-12-10T10:04:09;0.90;99.90
30336;DHT22;17142;47.990;7.846;2022-12-10T10:06:35;0.90;99.90
30336;DHT22;17142;47.990;7.846;2022-12-10T10:09:02;0.90;99.90
30336;DHT22;17142;47.990;7.846;2022-12-10T10:11:30;0.90;99.90
30336;DHT22;17142;47.990;7.846;2022-12-10T10:14:17;0.90;99.90
30336;DHT22;17142;47.990;7.846;2022-12-10T10:16:55;0.90;99.90
30336;DHT22;17142;47.990;7.846;2022-12-10T10:19:29;0.90;99.90
30336;DHT22;17142;47.990;7.846;2022-12-10T10:21:55;0.90;99.90
30336;DHT22;17142;47.990;7.846;2022-12-10T10:24:35;0.90;99.90
30336;DHT22;17142;47.990;7.846;2022-12-10T10:27:20;0.90;99.90
30336;DHT22;17142;47.990;7.846;2022-12-10T10:29:50;0.90;99.90
30336;DHT22;17142;47.990;7.846;2022-12-10T10:32:19;0.90;99.90
30336;DHT22;17142;47.990;7.846;2022-12-10T10:34:46;0.90;99.90
30336;DHT22;17142;47.990;7.846;2022-12-10T10:37:22;0.80;99.90
30336;DHT22;17142;47.990;7.846;2022-12-10T10:39:49;0.80;99.90
30336;DHT22;17142;47.990;7.846;2022-12-10T10:44:51;0.80;99.90
30336;DHT22;17142;47.990;7.846;2022-12-10T10:47:28;0.90;99.90
30336;DHT22;17142;47.990;7.846;2022-12-10T10:49:57;0.90;99.90
30336;DHT22;17142;47.990;7.846;2022-12-10T10:52:29;0.90;99.90
30336;DHT22;17142;47.990;7.846;2022-12-10T10:54:55;0.90;99.90
30336;DHT22;17142;47.990;7.846;2022-12-10T10:57:25;0.90;99.90
30336;DHT22;17142;47.990;7.846;2022-12-10T10:59:55;0.90;99.90
30336;DHT22;17142;47.990;7.846;2022-12-10T11:02:32;0.90;99.90
30336;DHT22;17142;47.990;7.846;2022-12-10T11:05:05;0.90;99.90
30336;DHT22;17142;47.990;7.846;2022-12-10T11:07:39;0.90;99.90
30336;DHT22;17142;47.990;7.846;2022-12-10T11:10:20;0.90;99.90
30336;DHT22;17142;47.990;7.846;2022-12-10T11:13:10;1.00;99.90
30336;DHT22;17142;47.990;7.846;2022-12-10T11:15:43;1.00;99.90
30336;DHT22;17142;47.990;7.846;2022-12-10T11:18:40;1.00;99.90
30336;DHT22;17142;47.990;7.846;2022-12-10T11:23:43;0.90;99.90
30336;DHT22;17142;47.990;7.846;2022-12-10T11:45:02;0.80;99.90
30336;DHT22;17142;47.990;7.846;2022-12-10T11:53:24;0.80;99.90
30336;DHT22;17142;47.990;7.846;2022-12-10T11:56:30;0.90;99.90
30336;DHT22;17142;47.990;7.846;2022-12-10T12:12:44;0.80;99.90
30336;DHT22;17142;47.990;7.846;2022-12-10T12:15:25;0.80;99.90
30336;DHT22;17142;47.990;7.846;2022-12-10T12:21:02;0.80;99.90
30336;DHT22;17142;47.990;7.846;2022-12-10T12:23:49;0.70;99.90
30336;DHT22;17142;47.990;7.846;2022-12-10T12:29:11;0.70;99.90
30336;DHT22;17142;47.990;7.846;2022-12-10T12:31:40;0.70;99.90
30336;DHT22;17142;47.990;7.846;2022-12-10T12:34:18;0.70;99.90
30336;DHT22;17142;47.990;7.846;2022-12-10T12:36:46;0.70;99.90
30336;DHT22;17142;47.990;7.846;2022-12-10T12:39:35;0.70;99.90
30336;DHT22;17142;47.990;7.846;2022-12-10T12:44:58;0.80;99.90
30336;DHT22;17142;47.990;7.846;2022-12-10T12:47:38;0.80;99.90
30336;DHT22;17142;47.990;7.846;2022-12-10T12:50:16;0.80;99.90
30336;DHT22;17142;47.990;7.846;2022-12-10T12:52:55;0.80;99.90
30336;DHT22;17142;47.990;7.846;2022-12-10T12:55:38;0.80;99.90
30336;DHT22;17142;47.990;7.846;2022-12-10T12:58:13;0.80;99.90
30336;DHT22;17142;47.990;7.846;2022-12-10T13:00:44;0.70;99.90
30336;DHT22;17142;47.990;7.846;2022-12-10T13:03:38;0.70;99.90
30336;DHT22;17142;47.990;7.846;2022-12-10T13:06:24;0.70;99.90
30336;DHT22;17142;47.990;7.846;2022-12-10T13:11:37;0.80;99.90
30336;DHT22;17142;47.990;7.846;2022-12-10T13:14:28;0.70;99.90
30336;DHT22;17142;47.990;7.846;2022-12-10T13:19:28;0.80;99.90
30336;DHT22;17142;47.990;7.846;2022-12-10T13:27:30;0.80;99.90
30336;DHT22;17142;47.990;7.846;2022-12-10T13:30:27;0.80;99.90
30336;DHT22;17142;47.990;7.846;2022-12-10T13:33:16;0.70;99.90
30336;DHT22;17142;47.990;7.846;2022-12-10T13:35:55;0.70;99.90
30336;DHT22;17142;47.990;7.846;2022-12-10T13:38:24;0.70;99.90
30336;DHT22;17142;47.990;7.846;2022-12-10T13:41:06;0.70;99.90
30336;DHT22;17142;47.990;7.846;2022-12-10T13:44:00;0.70;99.90
30336;DHT22;17142;47.990;7.846;2022-12-10T13:49:45;0.70;99.90
30336;DHT22;17142;47.990;7.846;2022-12-10T13:52:22;0.70;99.90
30336;DHT22;17142;47.990;7.846;2022-12-10T13:55:15;0.70;99.90
30336;DHT22;17142;47.990;7.846;2022-12-10T13:58:07;0.70;99.90
30336;DHT22;17142;47.990;7.846;2022-12-10T14:00:57;0.70;99.90
30336;DHT22;17142;47.990;7.846;2022-12-10T14:06:20;0.70;99.90
30336;DHT22;17142;47.990;7.846;2022-12-10T14:08:58;0.70;99.90
30336;DHT22;17142;47.990;7.846;2022-12-10T14:11:34;0.70;99.90
30336;DHT22;17142;47.990;7.846;2022-12-10T14:14:01;0.70;99.90
30336;DHT22;17142;47.990;7.846;2022-12-10T14:16:30;0.70;99.90
30336;DHT22;17142;47.990;7.846;2022-12-10T14:19:17;0.70;99.90
30336;DHT22;17142;47.990;7.846;2022-12-10T14:21:45;0.70;99.90
30336;DHT22;17142;47.990;7.846;2022-12-10T14:24:37;0.70;99.90
30336;DHT22;17142;47.990;7.846;2022-12-10T14:27:15;0.60;99.90
30336;DHT22;17142;47.990;7.846;2022-12-10T14:29:59;0.60;99.90
30336;DHT22;17142;47.990;7.846;2022-12-10T14:32:31;0.60;99.90
30336;DHT22;17142;47.990;7.846;2022-12-10T14:34:58;0.60;99.90
30336;DHT22;17142;47.990;7.846;2022-12-10T14:37:30;0.60;99.90
30336;DHT22;17142;47.990;7.846;2022-12-10T14:40:00;0.60;99.90
30336;DHT22;17142;47.990;7.846;2022-12-10T14:42:26;0.60;99.90
30336;DHT22;17142;47.990;7.846;2022-12-10T14:45:05;0.60;99.90
30336;DHT22;17142;47.990;7.846;2022-12-10T14:47:38;0.50;99.90
30336;DHT22;17142;47.990;7.846;2022-12-10T14:50:10;0.50;99.90
30336;DHT22;17142;47.990;7.846;2022-12-10T14:52:45;0.50;99.90
30336;DHT22;17142;47.990;7.846;2022-12-10T14:55:15;0.50;99.90
30336;DHT22;17142;47.990;7.846;2022-12-10T14:57:48;0.50;99.90
30336;DHT22;17142;47.990;7.846;2022-12-10T15:00:21;0.50;99.90
30336;DHT22;17142;47.990;7.846;2022-12-10T15:03:01;0.50;99.90
30336;DHT22;17142;47.990;7.846;2022-12-10T15:05:35;0.50;99.90
30336;DHT22;17142;47.990;7.846;2022-12-10T15:08:13;0.60;99.90
30336;DHT22;17142;47.990;7.846;2022-12-10T15:10:42;0.50;99.90
30336;DHT22;17142;47.990;7.846;2022-12-10T15:13:22;0.50;99.90
30336;DHT22;17142;47.990;7.846;2022-12-10T15:15:50;0.50;99.90
30336;DHT22;17142;47.990;7.846;2022-12-10T15:18:21;0.50;99.90
30336;DHT22;17142;47.990;7.846;2022-12-10T15:20:52;0.50;99.90
30336;DHT22;17142;47.990;7.846;2022-12-10T15:23:23;0.40;99.90
30336;DHT22;17142;47.990;7.846;2022-12-10T15:26:04;0.50;99.90
30336;DHT22;17142;47.990;7.846;2022-12-10T15:28:35;0.40;99.90
30336;DHT22;17142;47.990;7.846;2022-12-10T15:34:00;0.40;99.90
30336;DHT22;17142;47.990;7.846;2022-12-10T15:44:19;0.30;99.90
30336;DHT22;17142;47.990;7.846;2022-12-10T15:49:28;0.30;99.90
30336;DHT22;17142;47.990;7.846;2022-12-10T15:51:56;0.30;99.90
30336;DHT22;17142;47.990;7.846;2022-12-10T15:54:28;0.30;99.90
30336;DHT22;17142;47.990;7.846;2022-12-10T15:56:55;0.30;99.90
30336;DHT22;17142;47.990;7.846;2022-12-10T15:59:23;0.30;99.90
30336;DHT22;17142;47.990;7.846;2022-12-10T16:01:49;0.30;99.90
30336;DHT22;17142;47.990;7.846;2022-12-10T16:04:15;0.30;99.90
30336;DHT22;17142;47.990;7.846;2022-12-10T16:06:41;0.30;99.90
30336;DHT22;17142;47.990;7.846;2022-12-10T16:09:11;0.30;99.90
30336;DHT22;17142;47.990;7.846;2022-12-10T16:11:36;0.30;99.90
30336;DHT22;17142;47.990;7.846;2022-12-10T16:14:02;0.30;99.90
30336;DHT22;17142;47.990;7.846;2022-12-10T16:16:30;0.30;99.90
30336;DHT22;17142;47.990;7.846;2022-12-10T16:18:56;0.30;99.90
30336;DHT22;17142;47.990;7.846;2022-12-10T16:21:21;0.30;99.90
30336;DHT22;17142;47.990;7.846;2022-12-10T16:23:48;0.30;99.90
30336;DHT22;17142;47.990;7.846;2022-12-10T16:26:21;0.30;99.90
30336;DHT22;17142;47.990;7.846;2022-12-10T16:28:50;0.30;99.90
30336;DHT22;17142;47.990;7.846;2022-12-10T16:31:21;0.30;99.90
30336;DHT22;17142;47.990;7.846;2022-12-10T16:33:47;0.30;99.90
30336;DHT22;17142;47.990;7.846;2022-12-10T16:36:14;0.30;99.90
30336;DHT22;17142;47.990;7.846;2022-12-10T16:38:42;0.30;99.90
30336;DHT22;17142;47.990;7.846;2022-12-10T16:41:19;0.30;99.90
30336;DHT22;17142;47.990;7.846;2022-12-10T16:43:48;0.30;99.90
30336;DHT22;17142;47.990;7.846;2022-12-10T16:46:16;0.30;99.90
30336;DHT22;17142;47.990;7.846;2022-12-10T16:48:42;0.20;99.90
30336;DHT22;17142;47.990;7.846;2022-12-10T16:51:27;0.20;99.90
30336;DHT22;17142;47.990;7.846;2022-12-10T16:53:57;0.20;99.90
30336;DHT22;17142;47.990;7.846;2022-12-10T16:56:22;0.20;99.90
30336;DHT22;17142;47.990;7.846;2022-12-10T16:58:48;0.20;99.90
30336;DHT22;17142;47.990;7.846;2022-12-10T17:01:20;0.30;99.90
30336;DHT22;17142;47.990;7.846;2022-12-10T17:03:48;0.20;99.90
30336;DHT22;17142;47.990;7.846;2022-12-10T17:06:15;0.20;99.90
30336;DHT22;17142;47.990;7.846;2022-12-10T17:08:41;0.20;99.90
30336;DHT22;17142;47.990;7.846;2022-12-10T17:11:38;0.20;99.90
30336;DHT22;17142;47.990;7.846;2022-12-10T17:16:43;0.20;99.90
30336;DHT22;17142;47.990;7.846;2022-12-10T17:19:11;0.20;99.90
30336;DHT22;17142;47.990;7.846;2022-12-10T17:21:37;0.20;99.90
30336;DHT22;17142;47.990;7.846;2022-12-10T17:24:03;0.20;99.90
30336;DHT22;17142;47.990;7.846;2022-12-10T17:26:31;0.30;99.90
30336;DHT22;17142;47.990;7.846;2022-12-10T17:29:43;0.20;99.90
30336;DHT22;17142;47.990;7.846;2022-12-10T17:31:50;0.20;99.90
30336;DHT22;17142;47.990;7.846;2022-12-10T17:34:18;0.30;99.90
30336;DHT22;17142;47.990;7.846;2022-12-10T17:36:44;0.30;99.90
30336;DHT22;17142;47.990;7.846;2022-12-10T17:39:15;0.30;99.90
30336;DHT22;17142;47.990;7.846;2022-12-10T17:41:41;0.30;99.90
30336;DHT22;17142;47.990;7.846;2022-12-10T17:44:06;0.30;99.90
30336;DHT22;17142;47.990;7.846;2022-12-10T17:46:35;0.30;99.90
30336;DHT22;17142;47.990;7.846;2022-12-10T17:49:04;0.40;99.90
30336;DHT22;17142;47.990;7.846;2022-12-10T17:51:30;0.30;99.90
30336;DHT22;17142;47.990;7.846;2022-12-10T17:53:58;0.30;99.90
30336;DHT22;17142;47.990;7.846;2022-12-10T17:56:26;0.30;99.90
30336;DHT22;17142;47.990;7.846;2022-12-10T17:58:55;0.30;99.90
30336;DHT22;17142;47.990;7.846;2022-12-10T18:01:24;0.20;99.90
30336;DHT22;17142;47.990;7.846;2022-12-10T18:03:52;0.30;99.90
30336;DHT22;17142;47.990;7.846;2022-12-10T18:06:23;0.20;99.90
30336;DHT22;17142;47.990;7.846;2022-12-10T18:08:50;0.20;99.90
30336;DHT22;17142;47.990;7.846;2022-12-10T18:11:20;0.20;99.90
30336;DHT22;17142;47.990;7.846;2022-12-10T18:13:46;0.30;99.90
30336;DHT22;17142;47.990;7.846;2022-12-10T18:16:18;0.30;99.90
30336;DHT22;17142;47.990;7.846;2022-12-10T18:18:44;0.30;99.90
30336;DHT22;17142;47.990;7.846;2022-12-10T18:21:14;0.30;99.90
30336;DHT22;17142;47.990;7.846;2022-12-10T18:23:41;0.30;99.90
30336;DHT22;17142;47.990;7.846;2022-12-10T18:26:18;0.30;99.90
30336;DHT22;17142;47.990;7.846;2022-12-10T18:28:51;0.30;99.90
30336;DHT22;17142;47.990;7.846;2022-12-10T18:31:37;0.30;99.90
30336;DHT22;17142;47.990;7.846;2022-12-10T18:34:07;0.30;99.90
30336;DHT22;17142;47.990;7.846;2022-12-10T18:36:35;0.30;99.90
30336;DHT22;17142;47.990;7.846;2022-12-10T18:39:05;0.30;99.90
30336;DHT22;17142;47.990;7.846;2022-12-10T18:41:32;0.30;99.90
30336;DHT22;17142;47.990;7.846;2022-12-10T18:44:00;0.30;99.90
30336;DHT22;17142;47.990;7.846;2022-12-10T18:46:27;0.40;99.90
30336;DHT22;17142;47.990;7.846;2022-12-10T18:48:53;0.40;99.90
30336;DHT22;17142;47.990;7.846;2022-12-10T18:51:23;0.40;99.90
30336;DHT22;17142;47.990;7.846;2022-12-10T18:53:51;0.30;99.90
30336;DHT22;17142;47.990;7.846;2022-12-10T18:56:21;0.30;99.90
30336;DHT22;17142;47.990;7.846;2022-12-10T18:58:47;0.30;99.90
30336;DHT22;17142;47.990;7.846;2022-12-10T19:01:17;0.30;99.90
30336;DHT22;17142;47.990;7.846;2022-12-10T19:03:43;0.30;99.90
30336;DHT22;17142;47.990;7.846;2022-12-10T19:06:13;0.30;99.90
30336;DHT22;17142;47.990;7.846;2022-12-10T19:08:39;0.30;99.90
30336;DHT22;17142;47.990;7.846;2022-12-10T19:11:06;0.20;99.90
30336;DHT22;17142;47.990;7.846;2022-12-10T19:13:32;0.20;99.90
30336;DHT22;17142;47.990;7.846;2022-12-10T19:15:57;0.20;99.90
30336;DHT22;17142;47.990;7.846;2022-12-10T19:18:27;0.10;99.90
30336;DHT22;17142;47.990;7.846;2022-12-10T19:20:52;0.10;99.90
30336;DHT22;17142;47.990;7.846;2022-12-10T19:23:18;0.00;99.90
30336;DHT22;17142;47.990;7.846;2022-12-10T19:25:48;0.00;99.90
30336;DHT22;17142;47.990;7.846;2022-12-10T19:28:16;-0.10;99.90
30336;DHT22;17142;47.990;7.846;2022-12-10T19:30:44;-0.10;99.90
30336;DHT22;17142;47.990;7.846;2022-12-10T19:33:10;-0.20;99.90
30336;DHT22;17142;47.990;7.846;2022-12-10T19:35:37;-0.20;99.90
30336;DHT22;17142;47.990;7.846;2022-12-10T19:38:03;-0.30;99.90
30336;DHT22;17142;47.990;7.846;2022-12-10T19:40:34;-0.40;99.90
30336;DHT22;17142;47.990;7.846;2022-12-10T19:43:01;-0.50;99.90
30336;DHT22;17142;47.990;7.846;2022-12-10T19:45:29;-0.50;99.90
30336;DHT22;17142;47.990;7.846;2022-12-10T19:47:55;-0.60;99.90
30336;DHT22;17142;47.990;7.846;2022-12-10T19:50:30;-0.60;99.90
30336;DHT22;17142;47.990;7.846;2022-12-10T19:52:57;-0.60;99.90
30336;DHT22;17142;47.990;7.846;2022-12-10T19:55:26;-0.60;99.90
30336;DHT22;17142;47.990;7.846;2022-12-10T19:57:54;-0.70;99.90
30336;DHT22;17142;47.990;7.846;2022-12-10T20:00:29;-0.80;99.90
30336;DHT22;17142;47.990;7.846;2022-12-10T20:02:59;-0.90;99.90
30336;DHT22;17142;47.990;7.846;2022-12-10T20:05:25;-1.00;99.90
30336;DHT22;17142;47.990;7.846;2022-12-10T20:07:53;-1.10;99.90
30336;DHT22;17142;47.990;7.846;2022-12-10T20:10:24;-1.20;99.90
30336;DHT22;17142;47.990;7.846;2022-12-10T20:12:52;-1.20;99.90
30336;DHT22;17142;47.990;7.846;2022-12-10T20:15:19;-1.20;99.90
30336;DHT22;17142;47.990;7.846;2022-12-10T20:17:45;-1.30;99.90
30336;DHT22;17142;47.990;7.846;2022-12-10T20:20:28;-1.30;99.90
30336;DHT22;17142;47.990;7.846;2022-12-10T20:22:57;-1.40;99.90
30336;DHT22;17142;47.990;7.846;2022-12-10T20:25:23;-1.40;99.90
30336;DHT22;17142;47.990;7.846;2022-12-10T20:27:52;-1.50;99.90
30336;DHT22;17142;47.990;7.846;2022-12-10T20:30:23;-1.50;99.90
30336;DHT22;17142;47.990;7.846;2022-12-10T20:32:53;-1.50;99.90
30336;DHT22;17142;47.990;7.846;2022-12-10T20:35:20;-1.50;99.90
30336;DHT22;17142;47.990;7.846;2022-12-10T20:37:49;-1.50;99.90
30336;DHT22;17142;47.990;7.846;2022-12-10T20:40:20;-1.50;99.90
30336;DHT22;17142;47.990;7.846;2022-12-10T20:42:48;-1.40;99.90
30336;DHT22;17142;47.990;7.846;2022-12-10T20:45:14;-1.40;99.90
30336;DHT22;17142;47.990;7.846;2022-12-10T20:47:42;-1.40;99.90
30336;DHT22;17142;47.990;7.846;2022-12-10T20:50:13;-1.30;99.90
30336;DHT22;17142;47.990;7.846;2022-12-10T20:52:40;-1.30;99.90
30336;DHT22;17142;47.990;7.846;2022-12-10T20:55:06;-1.20;99.90
30336;DHT22;17142;47.990;7.846;2022-12-10T20:57:32;-1.20;99.90
30336;DHT22;17142;47.990;7.846;2022-12-10T20:59:57;-1.10;99.90
30336;DHT22;17142;47.990;7.846;2022-12-10T21:02:23;-1.10;99.90
30336;DHT22;17142;47.990;7.846;2022-12-10T21:04:51;-1.10;99.90
30336;DHT22;17142;47.990;7.846;2022-12-10T21:07:17;-1.00;99.90
30336;DHT22;17142;47.990;7.846;2022-12-10T21:09:45;-1.00;99.90
30336;DHT22;17142;47.990;7.846;2022-12-10T21:12:13;-1.00;99.90
30336;DHT22;17142;47.990;7.846;2022-12-10T21:14:41;-1.00;99.90
30336;DHT22;17142;47.990;7.846;2022-12-10T21:17:07;-1.00;99.90
30336;DHT22;17142;47.990;7.846;2022-12-10T21:19:35;-1.10;99.90
30336;DHT22;17142;47.990;7.846;2022-12-10T21:22:01;-1.10;99.90
30336;DHT22;17142;47.990;7.846;2022-12-10T21:24:28;-1.20;99.90
30336;DHT22;17142;47.990;7.846;2022-12-10T21:26:54;-1.30;99.90
30336;DHT22;17142;47.990;7.846;2022-12-10T21:29:22;-1.40;99.90
30336;DHT22;17142;47.990;7.846;2022-12-10T21:31:51;-1.50;99.90
30336;DHT22;17142;47.990;7.846;2022-12-10T21:34:17;-1.60;99.90
30336;DHT22;17142;47.990;7.846;2022-12-10T21:36:43;-1.60;99.90
30336;DHT22;17142;47.990;7.846;2022-12-10T21:39:08;-1.70;99.90
30336;DHT22;17142;47.990;7.846;2022-12-10T21:41:34;-1.80;99.90
30336;DHT22;17142;47.990;7.846;2022-12-10T21:44:18;-1.90;99.90
30336;DHT22;17142;47.990;7.846;2022-12-10T21:46:44;-2.00;99.90
30336;DHT22;17142;47.990;7.846;2022-12-10T21:49:12;-2.10;99.90
30336;DHT22;17142;47.990;7.846;2022-12-10T21:51:37;-2.10;99.90
30336;DHT22;17142;47.990;7.846;2022-12-10T21:54:03;-2.00;99.90
30336;DHT22;17142;47.990;7.846;2022-12-10T21:56:29;-2.00;99.90
30336;DHT22;17142;47.990;7.846;2022-12-10T21:58:57;-2.10;99.90
30336;DHT22;17142;47.990;7.846;2022-12-10T22:01:25;-2.10;99.90
30336;DHT22;17142;47.990;7.846;2022-12-10T22:03:51;-2.10;99.90
30336;DHT22;17142;47.990;7.846;2022-12-10T22:06:22;-2.10;99.90
